createdAt,value
2022-11-17T00:00:19.295Z,35.13
2022-11-17T00:02:47.454Z,33.50
2022-11-17T00:05:14.929Z,34.47
2022-11-17T00:07:45.098Z,34.85
2022-11-17T00:10:13.219Z,34.85
2022-11-17T00:12:59.846Z,33.25
2022-11-17T00:15:26.993Z,33.78
2022-11-17T00:18:12.254Z,36.45
2022-11-17T00:20:58.968Z,33.53
2022-11-17T00:23:26.976Z,35.10
2022-11-17T00:25:53.789Z,35.42
2022-11-17T00:28:20.642Z,34.88
2022-11-17T00:31:06.188Z,33.38
2022-11-17T00:33:51.819Z,35.05
2022-11-17T00:36:18.846Z,34.35
2022-11-17T00:38:45.688Z,36.80
2022-11-17T00:41:12.561Z,35.80
2022-11-17T00:43:39.353Z,34.67
2022-11-17T00:46:06.315Z,35.80
2022-11-17T00:48:33.130Z,33.80
2022-11-17T00:51:04.010Z,34.17
2022-11-17T00:53:31.022Z,32.90
2022-11-17T00:55:58.098Z,31.25
2022-11-17T00:58:25.077Z,33.45
2022-11-17T01:00:51.944Z,35.03
2022-11-17T01:03:19.107Z,33.42
2022-11-17T01:05:45.903Z,35.83
2022-11-17T01:08:12.987Z,32.28
2022-11-17T01:10:39.980Z,32.28
2022-11-17T01:13:07.014Z,33.92
2022-11-17T01:15:34.256Z,33.17
2022-11-17T01:18:01.123Z,32.25
2022-11-17T01:20:28.333Z,31.25
2022-11-17T01:22:55.695Z,31.83
2022-11-17T01:25:22.539Z,32.85
2022-11-17T01:27:49.496Z,32.90
2022-11-17T01:30:18.267Z,33.15
2022-11-17T01:32:45.255Z,31.63
2022-11-17T01:35:12.171Z,30.30
2022-11-17T01:37:39.270Z,31.00
2022-11-17T01:40:07.145Z,33.00
2022-11-17T01:42:34.057Z,32.97
2022-11-17T01:45:03.121Z,30.45
2022-11-17T01:47:52.110Z,29.05
2022-11-17T01:50:21.700Z,30.17
2022-11-17T01:55:21.197Z,29.25
2022-11-17T01:57:57.294Z,29.13
2022-11-17T02:00:25.280Z,29.75
2022-11-17T02:02:53.367Z,30.90
2022-11-17T02:05:45.833Z,29.58
2022-11-17T02:08:15.000Z,28.30
2022-11-17T02:10:48.581Z,27.85
2022-11-17T02:13:20.761Z,28.67
2022-11-17T02:16:13.115Z,27.65
2022-11-17T02:18:41.974Z,27.90
2022-11-17T02:21:44.940Z,27.48
2022-11-17T02:24:33.526Z,26.67
2022-11-17T02:27:32.859Z,26.30
2022-11-17T02:30:10.750Z,27.88
2022-11-17T02:32:56.093Z,26.98
2022-11-17T02:35:33.209Z,26.63
2022-11-17T02:38:11.521Z,25.15
2022-11-17T02:40:42.845Z,26.45
2022-11-17T02:43:33.982Z,26.13
2022-11-17T02:46:11.057Z,24.77
2022-11-17T02:48:44.922Z,25.92
2022-11-17T02:51:20.682Z,24.10
2022-11-17T02:53:49.447Z,24.85
2022-11-17T02:56:16.339Z,23.58
2022-11-17T02:58:43.344Z,23.70
2022-11-17T03:01:22.446Z,24.15
2022-11-17T03:04:26.349Z,24.52
2022-11-17T03:07:11.609Z,23.70
2022-11-17T03:09:56.868Z,23.42
2022-11-17T03:12:46.430Z,22.95
2022-11-17T03:15:31.553Z,22.30
2022-11-17T03:18:18.654Z,24.52
2022-11-17T03:21:35.781Z,22.20
2022-11-17T03:24:14.154Z,22.50
2022-11-17T03:26:47.978Z,23.45
2022-11-17T03:29:19.226Z,23.23
2022-11-17T03:31:49.166Z,24.45
2022-11-17T03:34:20.471Z,22.58
2022-11-17T03:36:52.624Z,22.60
2022-11-17T03:39:29.717Z,23.40
2022-11-17T03:42:13.872Z,24.70
2022-11-17T03:44:45.140Z,23.23
2022-11-17T03:47:15.067Z,24.23
2022-11-17T03:49:54.813Z,24.60
2022-11-17T03:52:21.995Z,21.48
2022-11-17T03:54:49.298Z,23.05
2022-11-17T03:57:38.443Z,24.63
2022-11-17T04:00:08.425Z,23.55
2022-11-17T04:02:46.125Z,23.42
2022-11-17T04:05:15.059Z,22.33
2022-11-17T04:07:47.074Z,22.65
2022-11-17T04:10:19.554Z,22.63
2022-11-17T04:13:06.588Z,24.10
2022-11-17T04:15:52.787Z,22.75
2022-11-17T04:18:20.438Z,21.70
2022-11-17T04:20:56.985Z,22.23
2022-11-17T04:23:25.240Z,22.75
2022-11-17T04:26:13.758Z,23.20
2022-11-17T04:28:47.140Z,21.58
2022-11-17T04:31:18.530Z,22.08
2022-11-17T04:33:47.693Z,23.75
2022-11-17T04:36:17.791Z,22.73
2022-11-17T04:38:50.859Z,22.45
2022-11-17T04:41:38.446Z,23.67
2022-11-17T04:44:06.676Z,23.38
2022-11-17T04:46:35.790Z,24.13
2022-11-17T04:49:04.384Z,21.92
2022-11-17T04:51:32.811Z,22.13
2022-11-17T04:54:00.115Z,25.83
2022-11-17T04:56:28.882Z,26.92
2022-11-17T04:58:56.629Z,23.70
2022-11-17T05:01:24.772Z,23.05
2022-11-17T05:03:51.734Z,21.88
2022-11-17T05:06:38.814Z,23.70
2022-11-17T05:09:08.415Z,22.48
2022-11-17T05:14:22.815Z,23.45
2022-11-17T05:17:09.558Z,21.77
2022-11-17T05:19:44.470Z,21.50
2022-11-17T05:22:32.080Z,23.13
2022-11-17T05:24:59.513Z,23.30
2022-11-17T05:27:26.997Z,22.65
2022-11-17T05:29:54.210Z,22.60
2022-11-17T05:32:21.117Z,23.15
2022-11-17T05:34:48.184Z,23.25
2022-11-17T05:37:15.358Z,23.80
2022-11-17T05:39:42.204Z,22.55
2022-11-17T05:42:09.192Z,22.35
2022-11-17T05:44:37.160Z,22.33
2022-11-17T05:47:04.261Z,21.73
2022-11-17T05:49:31.090Z,22.98
2022-11-17T05:51:58.161Z,22.85
2022-11-17T05:54:26.898Z,21.90
2022-11-17T05:57:05.553Z,21.40
2022-11-17T05:59:56.762Z,22.40
2022-11-17T06:02:31.261Z,22.17
2022-11-17T06:04:58.339Z,22.45
2022-11-17T06:07:25.170Z,21.90
2022-11-17T06:09:52.656Z,23.05
2022-11-17T06:12:19.518Z,23.10
2022-11-17T06:14:46.346Z,22.92
2022-11-17T06:17:24.871Z,23.27
2022-11-17T06:19:58.447Z,23.23
2022-11-17T06:22:27.242Z,23.58
2022-11-17T06:24:55.007Z,23.60
2022-11-17T06:27:22.779Z,22.10
2022-11-17T06:29:49.952Z,21.63
2022-11-17T06:32:18.750Z,21.23
2022-11-17T06:34:54.862Z,21.13
2022-11-17T06:37:23.659Z,21.75
2022-11-17T06:39:50.519Z,19.77
2022-11-17T06:42:17.372Z,18.80
2022-11-17T06:44:44.335Z,18.75
2022-11-17T06:47:11.155Z,17.55
2022-11-17T06:49:38.302Z,18.58
2022-11-17T06:52:06.429Z,17.90
2022-11-17T06:54:33.332Z,18.20
2022-11-17T06:57:00.351Z,17.95
2022-11-17T06:59:27.240Z,16.20
2022-11-17T07:01:54.201Z,16.35
2022-11-17T07:04:21.085Z,15.63
2022-11-17T07:06:48.159Z,15.80
2022-11-17T07:09:15.204Z,16.48
2022-11-17T07:11:42.040Z,16.83
2022-11-17T07:14:08.846Z,15.40
2022-11-17T07:16:35.884Z,14.60
2022-11-17T07:19:03.823Z,12.85
2022-11-17T07:21:31.198Z,12.63
2022-11-17T07:23:58.467Z,10.25
2022-11-17T07:26:25.340Z,10.68
2022-11-17T07:28:52.302Z,9.02
2022-11-17T07:31:19.174Z,5.80
2022-11-17T07:33:46.121Z,5.18
2022-11-17T07:36:17.506Z,4.55
2022-11-17T07:38:44.485Z,3.95
2022-11-17T07:41:14.149Z,4.15
2022-11-17T07:43:41.236Z,4.03
2022-11-17T07:46:11.606Z,3.83
2022-11-17T07:48:39.253Z,3.60
2022-11-17T07:51:06.846Z,4.15
2022-11-17T07:53:35.399Z,4.05
2022-11-17T07:56:04.373Z,3.28
2022-11-17T07:58:31.571Z,3.33
2022-11-17T08:00:58.592Z,3.30
2022-11-17T08:03:25.771Z,2.28
2022-11-17T08:05:53.840Z,2.15
2022-11-17T08:08:20.991Z,2.00
2022-11-17T08:10:47.766Z,2.08
2022-11-17T08:13:15.919Z,1.80
2022-11-17T08:15:42.841Z,2.10
2022-11-17T08:18:10.004Z,1.77
2022-11-17T08:20:37.002Z,1.50
2022-11-17T08:23:04.073Z,1.63
2022-11-17T08:25:30.940Z,0.98
2022-11-17T08:27:58.558Z,1.10
2022-11-17T08:30:26.572Z,0.95
2022-11-17T08:32:54.492Z,1.00
2022-11-17T08:35:25.464Z,1.40
2022-11-17T08:37:53.397Z,1.00
2022-11-17T08:40:21.298Z,1.70
2022-11-17T08:42:59.183Z,1.58
2022-11-17T08:45:27.867Z,2.25
2022-11-17T08:47:56.419Z,1.40
2022-11-17T08:50:23.633Z,1.75
2022-11-17T08:52:52.366Z,1.20
2022-11-17T08:55:19.614Z,1.13
2022-11-17T08:57:46.606Z,1.40
2022-11-17T09:00:14.371Z,1.38
2022-11-17T09:02:41.448Z,1.40
2022-11-17T09:05:08.877Z,1.40
2022-11-17T09:07:36.012Z,1.17
2022-11-17T09:10:05.420Z,1.20
2022-11-17T09:12:32.580Z,1.05
2022-11-17T09:14:59.540Z,1.35
2022-11-17T09:17:26.456Z,1.58
2022-11-17T09:19:53.733Z,2.78
2022-11-17T09:22:21.237Z,2.00
2022-11-17T09:24:48.290Z,2.83
2022-11-17T09:27:15.382Z,3.10
2022-11-17T09:29:42.233Z,1.88
2022-11-17T09:32:09.032Z,1.90
2022-11-17T09:34:36.167Z,1.60
2022-11-17T09:37:03.147Z,1.05
2022-11-17T09:39:30.031Z,1.80
2022-11-17T09:41:57.536Z,2.35
2022-11-17T09:44:24.569Z,2.50
2022-11-17T09:46:57.670Z,5.55
2022-11-17T09:49:46.272Z,6.25
2022-11-17T09:52:19.372Z,5.57
2022-11-17T09:54:55.600Z,7.15
2022-11-17T09:57:31.147Z,7.10
2022-11-17T10:00:22.560Z,6.78
2022-11-17T10:02:51.564Z,7.30
2022-11-17T10:05:26.413Z,10.55
2022-11-17T10:07:56.361Z,8.88
2022-11-17T10:10:35.347Z,9.00
2022-11-17T10:13:06.015Z,9.55
2022-11-17T10:15:47.500Z,7.40
2022-11-17T10:18:16.133Z,5.47
2022-11-17T10:20:45.028Z,5.60
2022-11-17T10:23:19.975Z,6.75
2022-11-17T10:25:49.592Z,7.28
2022-11-17T10:28:31.858Z,4.88
2022-11-17T10:31:03.402Z,5.65
2022-11-17T10:33:41.184Z,6.03
2022-11-17T10:36:19.264Z,7.20
2022-11-17T10:38:51.724Z,4.18
2022-11-17T10:41:23.065Z,4.28
2022-11-17T10:43:59.885Z,3.97
2022-11-17T10:46:31.435Z,3.50
2022-11-17T10:49:05.275Z,4.20
2022-11-17T10:54:14.939Z,2.85
2022-11-17T10:56:51.575Z,1.65
2022-11-17T10:59:29.920Z,1.70
2022-11-17T11:01:57.140Z,1.40
2022-11-17T11:04:34.771Z,1.50
2022-11-17T11:07:08.116Z,1.63
2022-11-17T11:09:41.507Z,1.73
2022-11-17T11:12:16.531Z,1.45
2022-11-17T11:14:52.700Z,2.90
2022-11-17T11:17:20.442Z,1.50
2022-11-17T11:19:54.116Z,1.35
2022-11-17T11:22:42.585Z,1.77
2022-11-17T11:25:09.706Z,1.65
2022-11-17T11:27:56.209Z,1.25
2022-11-17T11:30:23.857Z,1.15
2022-11-17T11:33:12.595Z,1.45
2022-11-17T11:35:55.024Z,1.30
2022-11-17T11:38:44.929Z,1.17
2022-11-17T11:41:26.818Z,1.08
2022-11-17T11:44:06.479Z,1.63
2022-11-17T11:46:45.463Z,1.17
2022-11-17T11:49:40.551Z,1.35
2022-11-17T11:52:16.302Z,1.60
2022-11-17T11:54:53.485Z,0.85
2022-11-17T11:57:27.123Z,1.30
2022-11-17T12:00:04.690Z,1.65
2022-11-17T12:03:01.179Z,1.25
2022-11-17T12:05:50.039Z,1.45
2022-11-17T12:08:32.235Z,1.33
2022-11-17T12:11:29.950Z,1.75
2022-11-17T12:13:57.870Z,2.05
2022-11-17T12:16:35.264Z,1.25
2022-11-17T12:19:03.124Z,1.65
2022-11-17T12:21:32.504Z,1.40
2022-11-17T12:24:16.806Z,1.48
2022-11-17T12:26:45.310Z,1.80
2022-11-17T12:29:44.980Z,2.00
2022-11-17T12:32:43.891Z,1.67
2022-11-17T12:35:27.726Z,1.80
2022-11-17T12:38:20.124Z,2.10
2022-11-17T12:40:51.660Z,2.63
2022-11-17T12:43:19.652Z,1.83
2022-11-17T12:45:52.825Z,1.98
2022-11-17T12:48:33.327Z,2.45
2022-11-17T12:51:06.533Z,2.67
2022-11-17T12:53:48.555Z,1.60
2022-11-17T12:56:33.342Z,4.65
2022-11-17T12:59:12.450Z,2.40
2022-11-17T13:02:17.808Z,7.18
2022-11-17T13:05:01.953Z,1.95
2022-11-17T13:07:30.103Z,1.80
2022-11-17T13:09:59.197Z,2.42
2022-11-17T13:12:28.520Z,2.10
2022-11-17T13:14:56.463Z,1.90
2022-11-17T13:17:29.815Z,2.03
2022-11-17T13:20:20.069Z,1.92
2022-11-17T13:23:04.921Z,2.85
2022-11-17T13:25:32.360Z,2.45
2022-11-17T13:28:04.482Z,2.00
2022-11-17T13:30:33.212Z,2.00
2022-11-17T13:33:03.730Z,1.38
2022-11-17T13:35:33.253Z,1.92
2022-11-17T13:38:21.669Z,1.33
2022-11-17T13:40:53.562Z,1.80
2022-11-17T13:43:23.081Z,1.48
2022-11-17T13:48:41.381Z,1.70
2022-11-17T13:51:28.381Z,1.80
2022-11-17T13:54:14.201Z,2.15
2022-11-17T13:56:46.100Z,1.90
2022-11-17T13:59:26.288Z,2.00
2022-11-17T14:02:15.217Z,1.88
2022-11-17T14:05:08.600Z,1.60
2022-11-17T14:07:38.604Z,2.58
2022-11-17T14:10:28.142Z,2.15
2022-11-17T14:13:01.148Z,2.00
2022-11-17T14:15:37.569Z,2.15
2022-11-17T14:18:28.795Z,1.83
2022-11-17T14:21:09.792Z,2.20
2022-11-17T14:23:37.217Z,2.53
2022-11-17T14:26:04.451Z,2.92
2022-11-17T14:28:31.476Z,2.67
2022-11-17T14:30:58.533Z,2.92
2022-11-17T14:33:26.194Z,2.90
2022-11-17T14:35:56.159Z,2.65
2022-11-17T14:38:23.347Z,3.53
2022-11-17T14:40:52.085Z,2.28
2022-11-17T14:43:20.906Z,3.30
2022-11-17T14:45:48.846Z,3.30
2022-11-17T14:48:19.290Z,2.92
2022-11-17T14:50:47.397Z,3.10
2022-11-17T14:53:14.596Z,2.70
2022-11-17T14:55:41.577Z,3.58
2022-11-17T14:58:10.028Z,4.35
2022-11-17T15:00:37.897Z,5.30
2022-11-17T15:03:04.859Z,3.95
2022-11-17T15:05:32.268Z,3.90
2022-11-17T15:07:59.199Z,4.00
2022-11-17T15:10:26.081Z,5.13
2022-11-17T15:12:52.944Z,6.25
2022-11-17T15:15:20.021Z,6.50
2022-11-17T15:17:46.929Z,6.68
2022-11-17T15:20:14.140Z,6.47
2022-11-17T15:22:41.042Z,7.10
2022-11-17T15:25:08.628Z,7.18
2022-11-17T15:27:35.834Z,7.85
2022-11-17T15:30:02.863Z,7.40
2022-11-17T15:32:30.031Z,8.20
2022-11-17T15:34:57.116Z,7.28
2022-11-17T15:37:24.989Z,7.00
2022-11-17T15:39:51.862Z,6.78
2022-11-17T15:42:18.985Z,8.23
2022-11-17T15:44:45.923Z,9.95
2022-11-17T15:47:12.927Z,9.50
2022-11-17T15:49:39.812Z,9.27
2022-11-17T15:52:06.760Z,10.65
2022-11-17T15:54:33.920Z,8.77
2022-11-17T15:57:02.786Z,8.35
2022-11-17T15:59:29.946Z,8.60
2022-11-17T16:01:56.792Z,8.40
2022-11-17T16:04:23.720Z,8.15
2022-11-17T16:06:50.781Z,8.27
2022-11-17T16:09:18.311Z,10.60
2022-11-17T16:11:45.439Z,10.32
2022-11-17T16:14:14.933Z,13.52
2022-11-17T16:19:09.240Z,12.18
2022-11-17T16:21:36.158Z,13.75
2022-11-17T16:24:03.484Z,17.67
2022-11-17T16:26:30.569Z,16.77
2022-11-17T16:29:04.146Z,15.38
2022-11-17T16:31:33.937Z,16.42
2022-11-17T16:34:04.494Z,13.40
2022-11-17T16:36:36.893Z,11.63
2022-11-17T16:39:06.953Z,13.00
2022-11-17T16:41:37.080Z,12.95
2022-11-17T16:44:09.572Z,11.77
2022-11-17T16:46:36.732Z,11.63
2022-11-17T16:49:07.651Z,12.90
2022-11-17T16:51:35.239Z,10.88
2022-11-17T16:54:05.129Z,13.02
2022-11-17T16:56:33.615Z,11.57
2022-11-17T16:59:01.280Z,13.90
2022-11-17T17:01:36.269Z,14.85
2022-11-17T17:04:08.208Z,14.30
2022-11-17T17:06:37.346Z,14.30
2022-11-17T17:09:06.853Z,14.43
2022-11-17T17:11:35.742Z,30.17
2022-11-17T17:14:06.318Z,29.85
2022-11-17T17:16:35.860Z,29.40
2022-11-17T17:19:04.919Z,20.10
2022-11-17T17:21:33.201Z,19.25
2022-11-17T17:24:00.355Z,19.13
2022-11-17T17:26:29.521Z,19.45
2022-11-17T17:28:59.283Z,19.60
2022-11-17T17:31:30.717Z,22.65
2022-11-17T17:34:00.032Z,22.40
2022-11-17T17:36:27.404Z,23.58
2022-11-17T17:38:56.556Z,26.38
2022-11-17T17:41:29.284Z,23.73
2022-11-17T17:44:01.364Z,21.20
2022-11-17T17:46:29.956Z,20.95
2022-11-17T17:48:57.169Z,19.33
2022-11-17T17:51:26.035Z,18.17
2022-11-17T17:53:55.912Z,15.85
2022-11-17T17:56:23.640Z,17.98
2022-11-17T17:58:51.833Z,17.75
2022-11-17T18:01:30.788Z,17.20
2022-11-17T18:04:04.684Z,18.30
2022-11-17T18:06:37.499Z,20.63
2022-11-17T18:09:06.163Z,20.38
2022-11-17T18:11:50.646Z,23.38
2022-11-17T18:14:24.672Z,27.38
2022-11-17T18:16:52.656Z,29.60
2022-11-17T18:19:19.862Z,52.95
2022-11-17T18:21:46.863Z,46.63
2022-11-17T18:24:14.003Z,21.98
2022-11-17T18:26:41.305Z,19.60
2022-11-17T18:29:11.995Z,19.77
2022-11-17T18:31:39.301Z,17.25
2022-11-17T18:34:15.737Z,16.90
2022-11-17T18:36:42.987Z,16.25
2022-11-17T18:39:10.133Z,16.25
2022-11-17T18:41:37.404Z,15.98
2022-11-17T18:44:05.025Z,15.55
2022-11-17T18:46:32.896Z,15.57
2022-11-17T18:49:00.656Z,15.52
2022-11-17T18:51:30.698Z,15.52
2022-11-17T18:54:00.376Z,16.05
2022-11-17T18:56:31.194Z,15.65
2022-11-17T18:58:59.525Z,19.20
2022-11-17T19:01:29.144Z,23.23
2022-11-17T19:04:02.657Z,19.75
2022-11-17T19:06:30.661Z,50.47
2022-11-17T19:08:59.635Z,37.63
2022-11-17T19:11:28.852Z,25.88
2022-11-17T19:13:55.711Z,21.98
2022-11-17T19:16:25.431Z,17.73
2022-11-17T19:18:54.699Z,17.88
2022-11-17T19:21:30.136Z,16.23
2022-11-17T19:23:59.490Z,20.60
2022-11-17T19:26:29.192Z,15.98
2022-11-17T19:28:58.099Z,16.67
2022-11-17T19:31:25.780Z,15.95
2022-11-17T19:33:53.934Z,16.70
2022-11-17T19:36:22.847Z,17.52
2022-11-17T19:38:54.718Z,16.70
2022-11-17T19:41:36.581Z,16.00
2022-11-17T19:44:09.031Z,16.52
2022-11-17T19:46:36.439Z,16.33
2022-11-17T19:49:06.149Z,15.98
2022-11-17T19:51:36.668Z,15.73
2022-11-17T19:54:06.754Z,14.77
2022-11-17T19:56:33.939Z,16.42
2022-11-17T19:59:00.810Z,15.70
2022-11-17T20:01:29.396Z,14.95
2022-11-17T20:03:58.099Z,17.05
2022-11-17T20:06:27.812Z,17.25
2022-11-17T20:08:56.045Z,17.08
2022-11-17T20:11:25.208Z,16.98
2022-11-17T20:13:53.118Z,17.40
2022-11-17T20:16:24.678Z,17.45
2022-11-17T20:18:54.543Z,17.63
2022-11-17T20:21:22.044Z,18.05
2022-11-17T20:23:49.220Z,17.80
2022-11-17T20:26:19.373Z,19.38
2022-11-17T20:28:47.838Z,20.38
2022-11-17T20:31:24.449Z,19.52
2022-11-17T20:33:53.936Z,21.38
2022-11-17T20:36:23.606Z,20.52
2022-11-17T20:38:52.075Z,20.83
2022-11-17T20:41:21.043Z,23.42
2022-11-17T20:43:49.681Z,22.98
2022-11-17T20:46:17.473Z,22.00
2022-11-17T20:48:44.752Z,22.13
2022-11-17T20:51:14.680Z,23.98
2022-11-17T20:53:41.797Z,23.25
2022-11-17T20:56:11.048Z,22.42
2022-11-17T20:58:38.412Z,24.08
2022-11-17T21:01:11.438Z,23.85
2022-11-17T21:03:38.821Z,25.80
2022-11-17T21:06:06.394Z,24.80
2022-11-17T21:08:35.342Z,23.17
2022-11-17T21:11:04.886Z,24.17
2022-11-17T21:13:33.850Z,23.30
2022-11-17T21:16:06.856Z,25.08
2022-11-17T21:18:35.320Z,22.52
2022-11-17T21:21:04.521Z,24.30
2022-11-17T21:23:32.276Z,23.88
2022-11-17T21:26:03.776Z,22.73
2022-11-17T21:28:30.871Z,24.40
2022-11-17T21:31:13.726Z,23.20
2022-11-17T21:33:41.047Z,24.30
2022-11-17T21:36:14.195Z,24.67
2022-11-17T21:38:42.151Z,23.85
2022-11-17T21:41:57.134Z,23.92
2022-11-17T21:44:12.198Z,23.00
2022-11-17T21:46:39.036Z,22.40
2022-11-17T21:49:06.043Z,23.13
2022-11-17T21:51:37.857Z,23.40
2022-11-17T21:54:17.391Z,23.15
2022-11-17T21:56:46.232Z,22.77
2022-11-17T21:59:14.019Z,21.48
2022-11-17T22:01:41.492Z,21.10
2022-11-17T22:04:10.650Z,22.60
2022-11-17T22:06:38.291Z,23.35
2022-11-17T22:09:05.200Z,21.58
2022-11-17T22:11:35.987Z,20.73
2022-11-17T22:14:29.973Z,21.50
2022-11-17T22:16:57.238Z,22.05
2022-11-17T22:19:27.013Z,22.48
2022-11-17T22:21:54.806Z,20.98
2022-11-17T22:24:21.965Z,22.77
2022-11-17T22:26:49.185Z,21.70
2022-11-17T22:29:19.106Z,21.40
2022-11-17T22:31:48.594Z,20.83
2022-11-17T22:34:15.907Z,21.83
2022-11-17T22:36:43.153Z,20.27
2022-11-17T22:39:10.470Z,20.83
2022-11-17T22:41:37.525Z,21.85
2022-11-17T22:44:04.737Z,20.20
2022-11-17T22:46:31.628Z,24.67
2022-11-17T22:48:58.706Z,23.58
2022-11-17T22:51:44.044Z,25.52
2022-11-17T22:54:11.514Z,24.15
2022-11-17T22:56:39.224Z,24.15
2022-11-17T22:59:06.715Z,24.65
2022-11-17T23:01:33.801Z,24.67
2022-11-17T23:04:03.968Z,25.25
2022-11-17T23:06:30.998Z,23.58
2022-11-17T23:08:58.352Z,23.77
2022-11-17T23:11:42.113Z,24.83
2022-11-17T23:14:11.789Z,24.02
2022-11-17T23:19:06.018Z,23.30
2022-11-17T23:21:32.886Z,22.13
2022-11-17T23:23:59.991Z,23.05
2022-11-17T23:26:26.947Z,23.30
2022-11-17T23:28:54.014Z,22.80
2022-11-17T23:31:21.062Z,23.65
2022-11-17T23:33:48.578Z,24.42
2022-11-17T23:36:19.127Z,23.38
2022-11-17T23:38:47.145Z,23.33
2022-11-17T23:41:16.119Z,23.15
2022-11-17T23:43:43.318Z,23.83
2022-11-17T23:46:15.242Z,24.42
2022-11-17T23:48:43.300Z,23.15
2022-11-17T23:51:12.870Z,23.05
2022-11-17T23:53:40.760Z,22.63
2022-11-17T23:56:08.851Z,21.90
2022-11-17T23:58:36.573Z,21.33
